Pepeekeo, Hawaii
Current Conditions -  °F | °C
As of 5:53 PM on Saturday 25 Oct 2014 (Local Time) from PHTO Reporting Station
Light Rain Light Rain  
Wind Chill: 73°   Ceiling: 2100
Heat Index: 73°   Visibility: 8mi
Dew Point: 71°   Wind: 7mph
Humidity: 93%   Direction: 270°W
Pressure: 30"   Gusts: NA
Location:  19.84°N, 155.09°W
Report Text: PHTO 260353Z 27006KT 8SM -RA BKN021 BKN027 OVC033 23/22 A3000 RMK AO2 SLP158 P0023 T02280217
Loading
Personal Weather Stations






























Interactive Weather Map
Tropical Storm Tracking
New forecast layout! Learn more

10-Day Weather Forecast

Advertisements
Track Severe Weather on mobile